Alamo, California
Current Conditions -  °F | °C
As of 7:53 AM on Sunday 23 Nov 2014 (Local Time) from KCCR Reporting Station
Clear Clear  
Wind Chill: 44°   Ceiling: Unl
Heat Index: 46°   Visibility: 8mi
Dew Point: 44°   Wind: 5mph
Humidity: 93%   Direction: 160°SSE
Pressure: 30.31"   Gusts: NA
Location:  37.85°N, 122.03°W
Report Text: KCCR 231553Z 16004KT 8SM CLR 08/07 A3031 RMK AO2 SLP250 T00780067 $
Loading
Personal Weather Stations






























Interactive Weather Map New forecast layout! Learn more

10-Day Weather Forecast

Advertisements
Track Severe Weather on mobile